Time;durP1;ratioP1;P1;durP2;ratioP2;P2;SDS_P1;SDS_P2;PMS_P1;PMS_P2;Temp;Humidity;BMP_temperature;BMP_pressure;BME280_temperature;BME280_humidity;BME280_pressure;Samples;Min_cycle;Max_cycle;Signal;HPM_P1;HPM_P2
2024/01/05 07:06:48;;;;;;;;;247.00;202.25;;;;;;;;5085927;27;13677;-72
2024/01/05 07:09:16;;;;;;;;;207.00;179.75;;;;;;;;5088268;28;8829;-71
2024/01/05 07:11:48;;;;;;;;;179.00;157.50;;;;;;;;5088358;28;8810;-70
2024/01/05 07:14:13;;;;;;;;;108.25;84.00;;;;;;;;5087712;28;8791;-69
2024/01/05 07:16:39;;;;;;;;;91.00;69.00;;;;;;;;4995053;27;11016;-70
2024/01/05 07:19:04;;;;;;;;;96.50;72.75;;;;;;;;5050299;28;8855;-71
2024/01/05 07:21:30;;;;;;;;;96.75;71.25;;;;;;;;5046502;28;8825;-70
2024/01/05 07:23:55;;;;;;;;;89.33;70.67;;;;;;;;5047585;28;8802;-70
2024/01/05 07:26:23;;;;;;;;;85.33;64.67;;;;;;;;5046461;28;8840;-69
2024/01/05 07:28:48;;;;;;;;;73.33;57.67;;;;;;;;5049732;28;8801;-73
2024/01/05 07:31:14;;;;;;;;;66.33;45.33;;;;;;;;5045891;28;9680;-71
2024/01/05 07:33:42;;;;;;;;;47.33;40.33;;;;;;;;5045495;28;9801;-70
2024/01/05 07:36:07;;;;;;;;;41.50;30.00;;;;;;;;5047040;28;8855;-70
2024/01/05 07:38:35;;;;;;;;;40.75;28.50;;;;;;;;5045386;28;12299;-70
2024/01/05 07:41:01;;;;;;;;;28.00;25.00;;;;;;;;5045525;28;8838;-73
2024/01/05 07:43:28;;;;;;;;;30.25;26.00;;;;;;;;5045370;28;12618;-71
2024/01/05 07:45:54;;;;;;;;;27.25;23.00;;;;;;;;5045279;28;11687;-72
2024/01/05 07:48:28;;;;;;;;;16.50;15.00;;;;;;;;5046967;28;12217;-71
2024/01/05 07:50:54;;;;;;;;;25.50;21.00;;;;;;;;5062784;28;8820;-72
2024/01/05 07:53:19;;;;;;;;;21.50;18.00;;;;;;;;5047195;28;11513;-70
2024/01/05 07:55:44;;;;;;;;;18.75;15.25;;;;;;;;5046568;28;8910;-71
2024/01/05 07:58:09;;;;;;;;;28.00;15.00;;;;;;;;5046201;28;9566;-70
2024/01/05 08:00:35;;;;;;;;;16.25;15.50;;;;;;;;5047914;28;8781;-71
2024/01/05 08:03:03;;;;;;;;;20.00;16.50;;;;;;;;5046125;28;8809;-71
2024/01/05 08:05:28;;;;;;;;;14.00;12.50;;;;;;;;5046511;28;8845;-70
2024/01/05 08:07:54;;;;;;;;;8.00;8.00;;;;;;;;5045325;28;11594;-71
2024/01/05 08:10:19;;;;;;;;;13.00;11.00;;;;;;;;5046616;28;8794;-70
2024/01/05 08:12:44;;;;;;;;;25.25;18.50;;;;;;;;5044620;28;8917;-71
2024/01/05 08:15:10;;;;;;;;;52.00;43.75;;;;;;;;5046339;28;8813;-71
2024/01/05 08:17:35;;;;;;;;;64.00;47.00;;;;;;;;5033903;28;8813;-70
2024/01/05 08:20:01;;;;;;;;;23.50;23.00;;;;;;;;5033105;28;8831;-70
2024/01/05 08:22:26;;;;;;;;;26.75;22.00;;;;;;;;5032204;28;8833;-70
2024/01/05 08:24:51;;;;;;;;;13.00;11.00;;;;;;;;5033412;28;8922;-71
2024/01/05 08:27:17;;;;;;;;;17.00;13.25;;;;;;;;5033396;28;8809;-70
2024/01/05 08:29:42;;;;;;;;;24.75;15.50;;;;;;;;5034289;28;8910;-70
2024/01/05 08:32:07;;;;;;;;;36.75;28.75;;;;;;;;5031820;28;8805;-70
2024/01/05 08:34:33;;;;;;;;;52.00;43.50;;;;;;;;5033273;28;8825;-70
2024/01/05 08:36:58;;;;;;;;;50.50;43.50;;;;;;;;5033205;28;8816;-71
2024/01/05 08:39:23;;;;;;;;;53.67;45.67;;;;;;;;5033103;28;8816;-71
2024/01/05 08:41:48;;;;;;;;;62.33;48.67;;;;;;;;5031842;28;8817;-70
2024/01/05 08:44:14;;;;;;;;;70.33;53.00;;;;;;;;5032919;28;8920;-72
2024/01/05 08:46:40;;;;;;;;;74.67;57.33;;;;;;;;5033005;28;8998;-72
2024/01/05 08:49:05;;;;;;;;;76.33;62.67;;;;;;;;5032953;28;8824;-74
2024/01/05 08:51:31;;;;;;;;;82.33;62.67;;;;;;;;5031705;28;8906;-69
2024/01/05 08:53:58;;;;;;;;;81.00;65.00;;;;;;;;5033033;28;8798;-73
2024/01/05 08:56:24;;;;;;;;;82.33;64.33;;;;;;;;5032146;28;8827;-73
2024/01/05 08:58:49;;;;;;;;;78.00;60.33;;;;;;;;5032569;28;8781;-77
2024/01/05 09:01:15;;;;;;;;;82.33;64.33;;;;;;;;5034624;28;8829;-76
2024/01/05 09:03:40;;;;;;;;;79.67;61.33;;;;;;;;5032066;28;8825;-73
2024/01/05 09:06:06;;;;;;;;;78.00;63.00;;;;;;;;5032526;28;8952;-74
2024/01/05 09:08:31;;;;;;;;;70.00;50.33;;;;;;;;5032662;28;8801;-76
2024/01/05 09:10:57;;;;;;;;;75.33;59.33;;;;;;;;5031383;28;9547;-73
2024/01/05 09:13:22;;;;;;;;;78.00;57.67;;;;;;;;5031722;28;8829;-75
2024/01/05 09:18:20;;;;;;;;;76.00;58.33;;;;;;;;4973277;28;8955;-77
2024/01/05 09:20:45;;;;;;;;;76.67;60.67;;;;;;;;4972832;28;8785;-77
2024/01/05 09:23:11;;;;;;;;;74.67;56.00;;;;;;;;4971543;28;8825;-77
2024/01/05 09:25:36;;;;;;;;;73.33;59.00;;;;;;;;4972645;28;8936;-77
2024/01/05 09:28:03;;;;;;;;;73.67;60.33;;;;;;;;4971805;28;8867;-76
2024/01/05 09:30:29;;;;;;;;;57.00;46.67;;;;;;;;4972758;28;8789;-75
2024/01/05 09:32:56;;;;;;;;;62.67;48.33;;;;;;;;4971080;28;9014;-76
2024/01/05 09:35:22;;;;;;;;;69.67;52.00;;;;;;;;4972430;28;8794;-76
2024/01/05 09:37:47;;;;;;;;;61.33;52.00;;;;;;;;4972353;28;8835;-76
2024/01/05 09:40:12;;;;;;;;;70.00;53.00;;;;;;;;4973988;28;8809;-77
2024/01/05 09:42:40;;;;;;;;;74.67;55.67;;;;;;;;4971619;28;8805;-76
2024/01/05 09:45:09;;;;;;;;;77.00;59.67;;;;;;;;4954485;28;8967;-75
2024/01/05 09:47:35;;;;;;;;;75.33;59.00;;;;;;;;4960897;28;8837;-77
2024/01/05 09:50:01;;;;;;;;;85.33;67.33;;;;;;;;4972472;28;8896;-77
2024/01/05 09:52:26;;;;;;;;;108.25;87.00;;;;;;;;4971942;28;8833;-76
2024/01/05 09:54:51;;;;;;;;;109.75;93.00;;;;;;;;4972101;28;8885;-79
2024/01/05 09:57:20;;;;;;;;;110.00;96.50;;;;;;;;4972808;28;8794;-81
2024/01/05 09:59:47;;;;;;;;;112.50;93.50;;;;;;;;4986795;28;8859;-77
2024/01/05 10:02:15;;;;;;;;;104.25;84.00;;;;;;;;4983975;28;8992;-80
2024/01/05 10:04:41;;;;;;;;;104.00;81.50;;;;;;;;4970864;28;8880;-82
2024/01/05 10:07:07;;;;;;;;;91.67;72.00;;;;;;;;4971346;28;8805;-80
2024/01/05 10:09:47;;;;;;;;;82.00;62.33;;;;;;;;4971386;28;8829;-77
2024/01/05 10:12:12;;;;;;;;;69.33;55.67;;;;;;;;4965050;28;8805;-79
2024/01/05 10:14:38;;;;;;;;;66.67;54.33;;;;;;;;4970531;28;8821;-77
2024/01/05 10:17:07;;;;;;;;;66.00;53.00;;;;;;;;4970345;28;8853;-80
2024/01/05 10:19:33;;;;;;;;;66.33;51.67;;;;;;;;4971605;28;8813;-80
2024/01/05 10:22:07;;;;;;;;;70.67;54.33;;;;;;;;4969324;28;11629;-78
2024/01/05 10:24:32;;;;;;;;;67.00;54.00;;;;;;;;4972415;28;9673;-76
2024/01/05 10:27:05;;;;;;;;;67.00;52.00;;;;;;;;4971178;28;8813;-80
2024/01/05 10:29:30;;;;;;;;;77.33;60.00;;;;;;;;4970165;28;8837;-78
2024/01/05 10:32:16;;;;;;;;;85.67;65.00;;;;;;;;4969200;28;8836;-73
2024/01/05 10:34:42;;;;;;;;;66.33;54.33;;;;;;;;4969400;28;8847;-73
2024/01/05 10:37:09;;;;;;;;;82.00;66.33;;;;;;;;4971252;28;8789;-71
2024/01/05 10:39:35;;;;;;;;;78.67;60.33;;;;;;;;4970918;28;8794;-72
2024/01/05 10:42:22;;;;;;;;;81.33;62.67;;;;;;;;4968592;28;9721;-74
2024/01/05 10:44:48;;;;;;;;;90.67;68.33;;;;;;;;4967714;28;8833;-72
2024/01/05 10:47:14;;;;;;;;;79.67;63.33;;;;;;;;4970848;28;9531;-71
2024/01/05 10:49:41;;;;;;;;;71.00;54.00;;;;;;;;4971259;28;8774;-73
2024/01/05 10:52:08;;;;;;;;;62.67;49.33;;;;;;;;4968417;28;8809;-73
2024/01/05 10:54:34;;;;;;;;;66.33;55.00;;;;;;;;4965006;28;11587;-73
2024/01/05 10:57:00;;;;;;;;;71.67;56.00;;;;;;;;4970699;28;8982;-72
2024/01/05 10:59:25;;;;;;;;;70.00;55.33;;;;;;;;4971056;28;8935;-76
2024/01/05 11:01:51;;;;;;;;;68.67;55.00;;;;;;;;4969899;28;8813;-77
2024/01/05 11:04:18;;;;;;;;;68.00;53.33;;;;;;;;4970324;28;8859;-84
2024/01/05 11:06:44;;;;;;;;;72.00;55.67;;;;;;;;4969825;28;8856;-79
2024/01/05 11:09:22;;;;;;;;;66.00;49.67;;;;;;;;4951928;28;8968;-77
2024/01/05 11:11:52;;;;;;;;;52.25;44.50;;;;;;;;4956712;28;8963;-82
2024/01/05 11:14:36;;;;;;;;;56.00;44.00;;;;;;;;4969277;28;12319;-75
2024/01/05 11:17:11;;;;;;;;;64.00;51.00;;;;;;;;4967783;28;11734;-77
2024/01/05 11:19:39;;;;;;;;;62.00;49.67;;;;;;;;4990941;28;12315;-77
2024/01/05 11:22:08;;;;;;;;;58.67;46.33;;;;;;;;4964902;28;11577;-76
2024/01/05 11:24:34;;;;;;;;;61.25;48.50;;;;;;;;4969349;28;12351;-79
2024/01/05 11:26:59;;;;;;;;;55.75;45.75;;;;;;;;4969638;28;11561;-76
2024/01/05 11:29:43;;;;;;;;;59.00;48.00;;;;;;;;4970011;28;11581;-78
2024/01/05 11:32:09;;;;;;;;;57.75;48.00;;;;;;;;4968387;28;8908;-79
2024/01/05 11:34:35;;;;;;;;;58.75;47.00;;;;;;;;4969417;28;11619;-76
2024/01/05 11:37:01;;;;;;;;;59.00;48.75;;;;;;;;4969469;28;8829;-76
2024/01/05 11:39:43;;;;;;;;;59.50;49.00;;;;;;;;4969265;28;11582;-76
2024/01/05 11:42:09;;;;;;;;;56.50;44.00;;;;;;;;4967140;28;11686;-79
2024/01/05 11:44:35;;;;;;;;;56.00;44.50;;;;;;;;4969206;28;11638;-75
2024/01/05 11:47:02;;;;;;;;;55.00;43.75;;;;;;;;4970605;28;9023;-74
2024/01/05 11:49:41;;;;;;;;;51.25;43.50;;;;;;;;4968852;28;8935;-84
2024/01/05 11:52:07;;;;;;;;;61.25;46.50;;;;;;;;4968069;28;11592;-77
2024/01/05 11:54:33;;;;;;;;;61.00;46.50;;;;;;;;4972282;28;11572;-78
2024/01/05 11:57:02;;;;;;;;;58.50;48.00;;;;;;;;4973237;28;11570;-78
2024/01/05 11:59:27;;;;;;;;;62.50;45.00;;;;;;;;4971619;28;9484;-82
2024/01/05 12:01:53;;;;;;;;;33.00;31.00;;;;;;;;4967159;28;11623;-78
2024/01/05 12:04:18;;;;;;;;;24.75;22.00;;;;;;;;4972945;28;8809;-79
2024/01/05 12:06:50;;;;;;;;;21.25;20.00;;;;;;;;4973607;28;8810;-80
2024/01/05 12:09:18;;;;;;;;;17.00;15.50;;;;;;;;4973650;28;8817;-79
2024/01/05 12:11:43;;;;;;;;;14.25;13.00;;;;;;;;4968506;28;11496;-78
2024/01/05 12:14:09;;;;;;;;;16.25;12.00;;;;;;;;4966540;28;11508;-78
2024/01/05 12:16:34;;;;;;;;;15.25;13.75;;;;;;;;4953280;28;8843;-78
2024/01/05 12:18:59;;;;;;;;;8.75;7.75;;;;;;;;4972397;28;8813;-81
2024/01/05 12:21:24;;;;;;;;;12.25;11.00;;;;;;;;4973536;28;9624;-78
2024/01/05 12:23:54;;;;;;;;;10.00;10.00;;;;;;;;4974224;28;8838;-78
2024/01/05 12:26:19;;;;;;;;;80.00;61.67;;;;;;;;4973225;28;8848;-73
2024/01/05 12:28:46;;;;;;;;;15.25;11.75;;;;;;;;4972946;28;8999;-74
2024/01/05 12:31:11;;;;;;;;;18.00;14.25;;;;;;;;4985575;28;8825;-74
2024/01/05 12:33:37;;;;;;;;;18.50;18.50;;;;;;;;4969334;28;11592;-75
2024/01/05 12:36:04;;;;;;;;;25.00;23.00;;;;;;;;4972907;28;8848;-77
2024/01/05 12:38:30;;;;;;;;;13.25;12.75;;;;;;;;4972770;28;11574;-74
2024/01/05 12:41:12;;;;;;;;;16.50;13.75;;;;;;;;4986278;28;11594;-72
2024/01/05 12:43:43;;;;;;;;;14.00;14.00;;;;;;;;4972052;28;8813;-76
2024/01/05 12:46:08;;;;;;;;;22.50;14.50;;;;;;;;4970688;28;11508;-77
2024/01/05 12:48:34;;;;;;;;;17.00;12.75;;;;;;;;4972241;28;11507;-74
2024/01/05 12:51:03;;;;;;;;;17.50;13.50;;;;;;;;4970853;28;8805;-73
2024/01/05 12:53:28;;;;;;;;;17.50;16.00;;;;;;;;4970577;28;9497;-74
2024/01/05 12:55:54;;;;;;;;;18.00;14.00;;;;;;;;4972284;28;11524;-74
2024/01/05 12:58:19;;;;;;;;;15.75;14.00;;;;;;;;4972486;28;8958;-73
2024/01/05 13:00:45;;;;;;;;;14.75;12.25;;;;;;;;4972609;28;8817;-74
2024/01/05 13:03:14;;;;;;;;;15.00;15.00;;;;;;;;4970267;28;9589;-74
2024/01/05 13:05:39;;;;;;;;;16.75;14.25;;;;;;;;4972393;28;8821;-71
2024/01/05 13:08:04;;;;;;;;;21.25;17.50;;;;;;;;4972658;28;12254;-73
2024/01/05 13:10:29;;;;;;;;;18.50;16.75;;;;;;;;4972302;28;9567;-74
2024/01/05 13:12:55;;;;;;;;;19.50;18.00;;;;;;;;4967689;28;8839;-73
2024/01/05 13:15:21;;;;;;;;;23.00;19.00;;;;;;;;4971115;28;8822;-76
2024/01/05 13:17:47;;;;;;;;;18.00;17.00;;;;;;;;4971646;28;8879;-75
2024/01/05 13:20:22;;;;;;;;;21.00;19.50;;;;;;;;4972136;28;8932;-82
2024/01/05 13:22:48;;;;;;;;;13.50;13.50;;;;;;;;4970532;28;11521;-79
2024/01/05 13:25:13;;;;;;;;;18.25;15.75;;;;;;;;4966196;28;11529;-80
2024/01/05 13:27:38;;;;;;;;;21.50;17.75;;;;;;;;4972036;28;8828;-79
2024/01/05 13:30:07;;;;;;;;;15.25;13.75;;;;;;;;4971870;28;8892;-77
2024/01/05 13:32:33;;;;;;;;;14.50;12.75;;;;;;;;4966689;28;8895;-74
2024/01/05 13:34:58;;;;;;;;;17.00;13.75;;;;;;;;4970560;28;11649;-75
2024/01/05 13:37:24;;;;;;;;;16.50;13.00;;;;;;;;4971284;28;8817;-75
2024/01/05 13:39:50;;;;;;;;;14.00;14.00;;;;;;;;4995266;28;8821;-75
2024/01/05 13:42:15;;;;;;;;;15.50;14.00;;;;;;;;4969152;28;11476;-74
2024/01/05 13:44:40;;;;;;;;;18.75;17.00;;;;;;;;4970629;28;9007;-76
2024/01/05 13:47:06;;;;;;;;;15.50;13.50;;;;;;;;4971129;28;8848;-75
2024/01/05 13:49:32;;;;;;;;;20.75;16.25;;;;;;;;4970805;28;8834;-75
2024/01/05 13:51:57;;;;;;;;;14.25;14.25;;;;;;;;4969440;28;8831;-74
2024/01/05 13:54:23;;;;;;;;;15.75;12.00;;;;;;;;4969012;28;11505;-74
2024/01/05 13:56:48;;;;;;;;;22.00;19.50;;;;;;;;4971111;28;8829;-75
2024/01/05 13:59:14;;;;;;;;;12.75;9.00;;;;;;;;4971223;28;8797;-76
2024/01/05 14:01:42;;;;;;;;;14.75;14.75;;;;;;;;4970223;28;8809;-75
2024/01/05 14:04:07;;;;;;;;;11.25;9.00;;;;;;;;4971676;28;11493;-76
2024/01/05 14:06:32;;;;;;;;;12.50;12.25;;;;;;;;4971665;28;11485;-75
2024/01/05 14:08:58;;;;;;;;;13.50;11.50;;;;;;;;4971981;28;8832;-76
2024/01/05 14:11:23;;;;;;;;;8.50;8.25;;;;;;;;4967356;28;8915;-77
2024/01/05 14:13:50;;;;;;;;;11.00;8.25;;;;;;;;4969638;28;8809;-75
2024/01/05 14:16:16;;;;;;;;;9.25;8.00;;;;;;;;4965484;28;8833;-74
2024/01/05 14:18:41;;;;;;;;;10.50;9.00;;;;;;;;4971488;28;11454;-76
2024/01/05 14:21:06;;;;;;;;;8.50;8.50;;;;;;;;4964522;28;8824;-76
2024/01/05 14:23:32;;;;;;;;;49.50;41.75;;;;;;;;4967653;28;8814;-76
2024/01/05 14:25:57;;;;;;;;;55.50;45.25;;;;;;;;4969880;28;9636;-77
2024/01/05 14:28:22;;;;;;;;;29.00;25.75;;;;;;;;4970897;28;8809;-75
2024/01/05 14:30:47;;;;;;;;;10.50;10.50;;;;;;;;4970612;28;8801;-83
2024/01/05 14:33:13;;;;;;;;;13.25;7.75;;;;;;;;4984579;28;9617;-81
2024/01/05 14:35:38;;;;;;;;;10.25;7.50;;;;;;;;4985922;28;8828;-80
2024/01/05 14:38:03;;;;;;;;;8.25;7.75;;;;;;;;4971241;28;8801;-85
2024/01/05 14:40:28;;;;;;;;;12.75;11.00;;;;;;;;4986165;28;8825;-79
2024/01/05 14:42:54;;;;;;;;;9.25;8.75;;;;;;;;4969098;28;8904;-86
2024/01/05 14:45:19;;;;;;;;;7.75;7.00;;;;;;;;4970512;28;8849;-78
2024/01/05 14:47:44;;;;;;;;;8.00;6.50;;;;;;;;4970863;28;8825;-81
2024/01/05 14:50:10;;;;;;;;;8.00;8.00;;;;;;;;4971996;28;9665;-77
2024/01/05 14:52:35;;;;;;;;;12.25;8.75;;;;;;;;4984509;28;8849;-81
2024/01/05 14:55:01;;;;;;;;;8.00;7.00;;;;;;;;4970208;28;8841;-77
2024/01/05 14:57:26;;;;;;;;;7.75;7.25;;;;;;;;4967022;28;8932;-82
2024/01/05 14:59:53;;;;;;;;;10.50;9.00;;;;;;;;4969929;28;8821;-86
2024/01/05 15:02:18;;;;;;;;;7.75;7.75;;;;;;;;4966773;28;8812;-86
2024/01/05 15:04:44;;;;;;;;;10.25;7.00;;;;;;;;4969305;28;11512;-78
2024/01/05 15:07:09;;;;;;;;;10.75;8.25;;;;;;;;4971571;28;8931;-78
2024/01/05 15:09:35;;;;;;;;;10.75;8.50;;;;;;;;4969717;28;8813;-77
2024/01/05 15:12:00;;;;;;;;;14.00;10.50;;;;;;;;4964842;28;8818;-78
